createdAt,value
2022-09-12T00:04:20.890Z,17.60
2022-09-12T00:09:19.044Z,17.50
2022-09-12T00:14:19.729Z,17.50
2022-09-12T00:19:18.761Z,17.40
2022-09-12T00:24:16.894Z,17.50
2022-09-12T00:29:19.104Z,17.40
2022-09-12T00:34:17.212Z,17.30
2022-09-12T00:39:17.842Z,17.10
2022-09-12T00:44:46.499Z,17.20
2022-09-12T00:49:49.697Z,17.10
2022-09-12T00:54:53.973Z,17.10
2022-09-12T00:59:56.079Z,17.00
2022-09-12T01:04:54.279Z,17.00
2022-09-12T01:09:52.556Z,16.90
2022-09-12T01:14:50.806Z,16.90
2022-09-12T01:20:19.518Z,16.80
2022-09-12T01:25:29.861Z,16.80
2022-09-12T01:30:56.061Z,16.70
2022-09-12T01:36:03.820Z,16.70
2022-09-12T01:41:10.541Z,16.60
2022-09-12T01:46:17.431Z,16.60
2022-09-12T01:51:21.448Z,16.50
2022-09-12T01:56:22.704Z,16.50
2022-09-12T02:01:25.630Z,16.40
2022-09-12T02:06:28.899Z,16.40
2022-09-12T02:11:27.088Z,16.30
2022-09-12T02:16:33.007Z,16.30
2022-09-12T02:21:33.071Z,16.20
2022-09-12T02:26:35.353Z,16.20
2022-09-12T02:31:41.582Z,16.20
2022-09-12T02:36:50.041Z,16.10
2022-09-12T02:41:48.646Z,16.00
2022-09-12T02:46:50.695Z,16.00
2022-09-12T02:51:53.110Z,16.00
2022-09-12T02:56:51.230Z,15.90
2022-09-12T03:02:07.916Z,15.90
2022-09-12T03:07:14.711Z,15.90
2022-09-12T03:12:26.917Z,15.80
2022-09-12T03:17:39.083Z,15.70
2022-09-12T03:22:50.907Z,15.70
2022-09-12T03:27:57.194Z,15.70
2022-09-12T03:32:56.699Z,15.60
2022-09-12T03:37:55.033Z,15.60
2022-09-12T03:42:53.680Z,15.50
2022-09-12T03:47:51.839Z,15.50
2022-09-12T03:52:51.517Z,15.50
2022-09-12T03:57:49.649Z,15.40
2022-09-12T04:02:48.019Z,15.40
2022-09-12T04:07:46.291Z,15.40
2022-09-12T04:12:45.762Z,15.30
2022-09-12T04:17:43.911Z,15.30
2022-09-12T04:22:42.134Z,15.30
2022-09-12T04:27:40.587Z,15.20
2022-09-12T04:32:41.423Z,15.20
2022-09-12T04:37:39.848Z,15.20
2022-09-12T04:42:38.010Z,15.10
2022-09-12T04:47:36.385Z,15.10
2022-09-12T04:52:35.926Z,15.30
2022-09-12T04:57:34.446Z,15.00
2022-09-12T05:02:34.700Z,15.00
2022-09-12T05:07:33.147Z,15.00
2022-09-12T05:12:32.841Z,14.90
2022-09-12T05:17:31.231Z,15.00
2022-09-12T05:22:29.393Z,15.00
2022-09-12T05:27:27.524Z,15.00
2022-09-12T05:32:27.017Z,14.90
2022-09-12T05:37:25.190Z,14.90
2022-09-12T05:42:23.488Z,14.90
2022-09-12T05:47:21.565Z,15.00
2022-09-12T05:52:21.376Z,15.00
2022-09-12T05:57:19.569Z,15.00
2022-09-12T06:02:18.224Z,15.10
2022-09-12T06:07:16.367Z,15.10
2022-09-12T06:12:15.869Z,15.10
2022-09-12T06:17:14.344Z,15.20
2022-09-12T06:22:12.500Z,15.30
2022-09-12T06:27:10.751Z,15.30
2022-09-12T06:32:10.527Z,15.40
2022-09-12T06:37:08.710Z,15.50
2022-09-12T06:42:07.151Z,15.60
2022-09-12T06:47:06.564Z,15.70
2022-09-12T06:52:07.296Z,15.80
2022-09-12T06:57:05.600Z,15.90
2022-09-12T07:02:03.998Z,16.00
2022-09-12T07:07:02.257Z,16.10
2022-09-12T07:12:04.381Z,16.20
2022-09-12T07:17:02.662Z,16.40
2022-09-12T07:22:00.805Z,16.50
2022-09-12T07:26:58.925Z,16.70
2022-09-12T07:31:58.470Z,17.00
2022-09-12T07:36:56.629Z,17.10
2022-09-12T07:41:54.791Z,17.40
2022-09-12T07:46:52.909Z,17.60
2022-09-12T07:51:53.185Z,17.70
2022-09-12T07:56:51.744Z,18.00
2022-09-12T08:01:49.874Z,18.20
2022-09-12T08:06:48.102Z,18.40
2022-09-12T08:11:47.659Z,18.50
2022-09-12T08:16:45.884Z,18.80
2022-09-12T08:21:44.036Z,18.90
2022-09-12T08:26:43.012Z,19.10
2022-09-12T08:31:42.586Z,19.30
2022-09-12T08:36:41.022Z,19.50
2022-09-12T08:41:41.166Z,20.00
2022-09-12T08:46:49.946Z,20.30
2022-09-12T08:51:48.496Z,20.50
2022-09-12T08:56:47.846Z,20.70
2022-09-12T09:01:52.064Z,20.80
2022-09-12T09:07:21.254Z,21.00
2022-09-12T09:12:27.865Z,21.50
2022-09-12T09:17:32.280Z,21.80
2022-09-12T09:22:38.967Z,21.80
2022-09-12T09:27:42.367Z,21.80
2022-09-12T09:32:43.671Z,22.00
2022-09-12T09:37:44.946Z,22.10
2022-09-12T09:42:50.914Z,22.10
2022-09-12T09:47:55.412Z,22.20
2022-09-12T09:52:55.142Z,22.50
2022-09-12T09:57:57.228Z,22.70
2022-09-12T10:03:23.125Z,22.80
2022-09-12T10:08:23.964Z,22.90
2022-09-12T10:13:28.395Z,23.00
2022-09-12T10:18:42.773Z,23.30
2022-09-12T10:23:41.385Z,23.60
2022-09-12T10:28:41.483Z,23.70
2022-09-12T10:33:44.099Z,23.80
2022-09-12T10:38:51.646Z,23.90
2022-09-12T10:43:50.856Z,24.00
2022-09-12T10:48:52.109Z,24.20
2022-09-12T10:53:51.191Z,24.30
2022-09-12T10:59:07.942Z,24.50
2022-09-12T11:04:25.424Z,24.70
2022-09-12T11:09:28.225Z,24.70
2022-09-12T11:14:40.680Z,24.70
2022-09-12T11:19:55.063Z,24.80
2022-09-12T11:25:24.841Z,24.80
2022-09-12T11:30:23.440Z,24.90
2022-09-12T11:35:26.181Z,25.00
2022-09-12T11:40:32.454Z,25.10
2022-09-12T11:45:36.143Z,25.30
2022-09-12T11:50:35.620Z,25.40
2022-09-12T11:55:45.920Z,25.50
2022-09-12T12:00:48.500Z,25.60
2022-09-12T12:05:53.512Z,25.60
2022-09-12T12:10:55.911Z,25.80
2022-09-12T12:15:56.784Z,25.80
2022-09-12T12:20:58.017Z,25.90
2022-09-12T12:25:58.234Z,25.90
2022-09-12T12:31:05.880Z,25.90
2022-09-12T12:36:08.909Z,26.00
2022-09-12T12:41:43.732Z,26.00
2022-09-12T12:46:41.914Z,26.00
2022-09-12T12:51:55.880Z,26.00
2022-09-12T12:57:07.366Z,26.00
2022-09-12T13:02:05.943Z,26.00
2022-09-12T13:07:08.757Z,26.10
2022-09-12T13:12:11.000Z,26.10
2022-09-12T13:17:15.493Z,26.10
2022-09-12T13:22:15.477Z,26.10
2022-09-12T13:27:19.519Z,26.10
2022-09-12T13:32:19.030Z,26.00
2022-09-12T13:37:49.710Z,25.90
2022-09-12T13:42:50.122Z,25.90
2022-09-12T13:47:49.993Z,25.90
2022-09-12T13:52:53.365Z,26.00
2022-09-12T13:57:59.009Z,26.00
2022-09-12T14:03:11.030Z,26.10
2022-09-12T14:08:15.513Z,26.00
2022-09-12T14:13:28.079Z,26.10
2022-09-12T14:18:27.609Z,26.10
2022-09-12T14:23:30.009Z,26.20
2022-09-12T14:28:30.196Z,26.20
2022-09-12T14:33:28.622Z,26.20
2022-09-12T14:38:36.474Z,26.20
2022-09-12T14:43:37.000Z,26.20
2022-09-12T14:48:38.460Z,26.10
2022-09-12T14:53:39.386Z,26.10
2022-09-12T14:58:38.204Z,26.10
2022-09-12T15:03:38.131Z,26.10
2022-09-12T15:08:37.698Z,26.10
2022-09-12T15:13:41.300Z,26.10
2022-09-12T15:18:39.638Z,26.10
2022-09-12T15:23:43.773Z,26.10
2022-09-12T15:28:42.004Z,26.00
2022-09-12T15:33:40.381Z,25.90
2022-09-12T15:38:39.920Z,25.80
2022-09-12T15:43:38.046Z,25.70
2022-09-12T15:48:36.136Z,25.70
2022-09-12T15:53:34.262Z,25.60
2022-09-12T15:58:33.715Z,25.50
2022-09-12T16:03:32.434Z,25.40
2022-09-12T16:08:32.338Z,25.40
2022-09-12T16:13:30.455Z,25.30
2022-09-12T16:18:30.531Z,25.20
2022-09-12T16:23:28.630Z,25.20
2022-09-12T16:28:26.957Z,25.10
2022-09-12T16:33:25.130Z,25.00
2022-09-12T16:38:24.802Z,25.00
2022-09-12T16:43:23.010Z,24.90
2022-09-12T16:48:21.089Z,24.80
2022-09-12T16:53:19.255Z,24.70
2022-09-12T16:58:18.813Z,24.60
2022-09-12T17:03:17.386Z,24.50
2022-09-12T17:08:15.473Z,24.40
2022-09-12T17:13:13.643Z,24.30
2022-09-12T17:18:13.113Z,24.10
2022-09-12T17:23:11.254Z,24.00
2022-09-12T17:28:09.354Z,23.90
2022-09-12T17:33:07.452Z,23.70
2022-09-12T17:38:07.273Z,23.60
2022-09-12T17:43:05.445Z,23.50
2022-09-12T17:48:04.082Z,23.30
2022-09-12T17:53:02.266Z,23.20
2022-09-12T17:58:01.860Z,23.10
2022-09-12T18:03:00.051Z,23.00
2022-09-12T18:07:58.216Z,22.90
2022-09-12T18:12:57.501Z,22.80
2022-09-12T18:17:57.116Z,22.70
2022-09-12T18:22:55.280Z,22.60
2022-09-12T18:27:54.474Z,22.40
2022-09-12T18:32:52.580Z,22.30
2022-09-12T18:37:52.107Z,22.30
2022-09-12T18:42:51.404Z,22.20
2022-09-12T18:47:49.544Z,22.10
2022-09-12T18:52:47.751Z,22.00
2022-09-12T18:57:47.316Z,21.90
2022-09-12T19:02:45.589Z,21.90
2022-09-12T19:07:43.737Z,21.80
2022-09-12T19:12:41.903Z,21.70
2022-09-12T19:17:41.396Z,21.60
2022-09-12T19:22:39.525Z,21.60
2022-09-12T19:27:38.036Z,21.50
2022-09-12T19:32:36.105Z,21.40
2022-09-12T19:37:35.614Z,21.30
2022-09-12T19:42:33.922Z,21.30
2022-09-12T19:47:32.033Z,21.20
2022-09-12T19:52:30.159Z,21.10
2022-09-12T19:57:29.636Z,21.10
2022-09-12T20:02:28.139Z,21.00
2022-09-12T20:07:26.584Z,20.90
2022-09-12T20:12:24.764Z,20.80
2022-09-12T20:17:24.238Z,20.70
2022-09-12T20:22:22.334Z,20.70
2022-09-12T20:27:20.720Z,20.60
2022-09-12T20:32:18.947Z,20.60
2022-09-12T20:37:18.506Z,20.50
2022-09-12T20:42:16.636Z,20.50
2022-09-12T20:47:14.736Z,20.50
2022-09-12T20:52:12.936Z,20.40
2022-09-12T20:57:12.387Z,20.30
2022-09-12T21:02:14.491Z,20.30
2022-09-12T21:07:12.820Z,20.30
2022-09-12T21:12:12.274Z,20.20
2022-09-12T21:17:10.394Z,20.10
2022-09-12T21:22:09.621Z,20.10
2022-09-12T21:27:07.971Z,20.00
2022-09-12T21:32:12.158Z,20.00
2022-09-12T21:37:12.166Z,19.90
2022-09-12T21:42:10.586Z,19.90
2022-09-12T21:47:10.126Z,19.80
2022-09-12T21:52:08.340Z,19.70
2022-09-12T21:57:06.659Z,19.70
2022-09-12T22:02:08.550Z,19.60
2022-09-12T22:07:08.259Z,19.60
2022-09-12T22:12:06.772Z,19.50
2022-09-12T22:17:05.239Z,19.70
2022-09-12T22:22:29.382Z,19.50
2022-09-12T22:27:28.869Z,19.50
2022-09-12T22:32:26.983Z,19.50
2022-09-12T22:37:25.170Z,19.40
2022-09-12T22:42:23.407Z,19.40
2022-09-12T22:47:23.089Z,19.30
2022-09-12T22:52:21.203Z,19.30
2022-09-12T22:57:19.679Z,19.30
2022-09-12T23:02:17.788Z,19.20
2022-09-12T23:07:17.254Z,19.20
2022-09-12T23:12:15.540Z,19.20
2022-09-12T23:17:13.666Z,19.10
2022-09-12T23:22:11.880Z,19.10
2022-09-12T23:27:11.392Z,19.00
2022-09-12T23:32:09.509Z,19.00
2022-09-12T23:37:07.721Z,19.00
2022-09-12T23:42:06.175Z,19.00
2022-09-12T23:47:05.766Z,19.00
2022-09-12T23:52:04.337Z,19.00
2022-09-12T23:57:02.501Z,19.00
